createdAt,value
2022-11-15T00:01:17.878Z,5.18
2022-11-15T00:04:04.400Z,7.65
2022-11-15T00:06:49.906Z,5.90
2022-11-15T00:09:35.563Z,5.05
2022-11-15T00:12:21.176Z,6.53
2022-11-15T00:15:07.817Z,5.88
2022-11-15T00:17:53.318Z,7.53
2022-11-15T00:20:39.148Z,6.68
2022-11-15T00:23:24.634Z,5.75
2022-11-15T00:26:14.900Z,9.45
2022-11-15T00:29:00.226Z,5.53
2022-11-15T00:31:45.974Z,7.53
2022-11-15T00:34:31.474Z,4.75
2022-11-15T00:37:16.964Z,6.20
2022-11-15T00:40:02.944Z,9.70
2022-11-15T00:42:48.386Z,6.32
2022-11-15T00:45:34.029Z,6.40
2022-11-15T00:48:19.758Z,7.22
2022-11-15T00:51:05.500Z,7.18
2022-11-15T00:53:51.465Z,6.82
2022-11-15T00:56:37.227Z,7.15
2022-11-15T00:59:23.057Z,9.05
2022-11-15T01:02:09.396Z,12.98
2022-11-15T01:04:54.817Z,8.65
2022-11-15T01:07:40.493Z,8.50
2022-11-15T01:10:29.116Z,9.00
2022-11-15T01:13:15.237Z,6.47
2022-11-15T01:16:12.009Z,4.97
2022-11-15T01:18:57.714Z,6.05
2022-11-15T01:21:44.729Z,6.63
2022-11-15T01:24:30.543Z,10.77
2022-11-15T01:27:15.785Z,5.07
2022-11-15T01:30:01.538Z,6.38
2022-11-15T01:32:47.294Z,9.65
2022-11-15T01:35:32.904Z,7.07
2022-11-15T01:38:18.718Z,6.03
2022-11-15T01:41:05.041Z,4.53
2022-11-15T01:43:54.812Z,6.78
2022-11-15T01:46:46.210Z,7.50
2022-11-15T01:49:35.999Z,5.93
2022-11-15T01:52:24.847Z,10.98
2022-11-15T01:55:19.045Z,6.65
2022-11-15T01:58:06.245Z,9.75
2022-11-15T02:00:52.645Z,6.90
2022-11-15T02:03:47.615Z,7.53
2022-11-15T02:06:33.056Z,7.10
2022-11-15T02:09:18.895Z,8.60
2022-11-15T02:12:05.822Z,13.70
2022-11-15T02:14:54.247Z,8.15
2022-11-15T02:18:11.669Z,6.97
2022-11-15T02:21:35.307Z,4.50
2022-11-15T02:24:39.439Z,8.82
2022-11-15T02:27:49.703Z,7.32
2022-11-15T02:31:16.154Z,4.53
2022-11-15T02:37:25.145Z,6.90
2022-11-15T02:40:35.687Z,12.43
2022-11-15T02:43:49.117Z,9.88
2022-11-15T02:47:05.072Z,5.72
2022-11-15T02:49:55.840Z,5.30
2022-11-15T02:52:42.370Z,7.38
2022-11-15T02:55:34.658Z,19.08
2022-11-15T02:58:39.196Z,8.75
2022-11-15T03:01:42.183Z,15.90
2022-11-15T03:04:44.879Z,7.00
2022-11-15T03:07:37.883Z,8.00
2022-11-15T03:10:46.072Z,6.22
2022-11-15T03:13:41.133Z,13.50
2022-11-15T03:17:12.909Z,11.52
2022-11-15T03:20:01.367Z,11.30
2022-11-15T03:22:49.326Z,6.90
2022-11-15T03:25:37.701Z,7.57
2022-11-15T03:28:29.024Z,9.75
2022-11-15T03:31:51.541Z,7.93
2022-11-15T03:34:46.136Z,12.00
2022-11-15T03:37:40.037Z,8.05
2022-11-15T03:40:59.002Z,19.48
2022-11-15T03:43:56.876Z,9.50
2022-11-15T03:47:10.866Z,15.57
2022-11-15T03:50:09.639Z,8.77
2022-11-15T03:52:56.106Z,13.48
2022-11-15T03:55:41.590Z,10.00
2022-11-15T03:58:26.996Z,14.43
2022-11-15T04:01:12.570Z,10.80
2022-11-15T04:03:57.946Z,16.30
2022-11-15T04:06:43.429Z,22.92
2022-11-15T04:09:28.922Z,15.57
2022-11-15T04:12:31.478Z,18.38
2022-11-15T04:15:20.135Z,18.40
2022-11-15T04:18:05.663Z,19.27
2022-11-15T04:21:10.335Z,14.45
2022-11-15T04:23:55.895Z,21.38
2022-11-15T04:26:42.003Z,11.35
2022-11-15T04:29:36.080Z,12.80
2022-11-15T04:32:21.604Z,18.83
2022-11-15T04:35:07.576Z,8.63
2022-11-15T04:37:53.342Z,17.23
2022-11-15T04:40:40.491Z,16.63
2022-11-15T04:43:26.506Z,13.70
2022-11-15T04:46:12.070Z,9.02
2022-11-15T04:48:59.134Z,9.35
2022-11-15T04:51:45.271Z,14.80
2022-11-15T04:54:30.830Z,19.63
2022-11-15T04:57:16.546Z,10.20
2022-11-15T05:00:03.315Z,14.75
2022-11-15T05:03:07.397Z,15.68
2022-11-15T05:05:59.681Z,13.85
2022-11-15T05:08:46.996Z,12.77
2022-11-15T05:11:32.559Z,10.43
2022-11-15T05:14:18.181Z,13.93
2022-11-15T05:17:03.610Z,16.08
2022-11-15T05:19:49.232Z,11.57
2022-11-15T05:22:35.201Z,12.30
2022-11-15T05:25:20.880Z,17.30
2022-11-15T05:28:09.691Z,9.43
2022-11-15T05:31:09.731Z,20.38
2022-11-15T05:33:59.484Z,16.83
2022-11-15T05:36:46.632Z,13.43
2022-11-15T05:39:32.416Z,17.90
2022-11-15T05:42:18.260Z,11.32
2022-11-15T05:45:06.912Z,27.65
2022-11-15T05:47:54.915Z,20.38
2022-11-15T05:50:44.323Z,11.85
2022-11-15T05:53:31.468Z,12.73
2022-11-15T05:56:17.380Z,15.98
2022-11-15T05:59:04.088Z,14.15
2022-11-15T06:01:49.967Z,15.70
2022-11-15T06:04:35.233Z,13.55
2022-11-15T06:07:21.047Z,17.67
2022-11-15T06:10:07.437Z,10.30
2022-11-15T06:13:00.125Z,16.88
2022-11-15T06:15:45.580Z,13.70
2022-11-15T06:18:34.519Z,17.33
2022-11-15T06:21:20.200Z,12.07
2022-11-15T06:24:07.601Z,10.90
2022-11-15T06:26:55.496Z,11.60
2022-11-15T06:29:41.158Z,22.55
2022-11-15T06:32:26.801Z,13.88
2022-11-15T06:35:12.540Z,9.13
2022-11-15T06:38:07.437Z,10.68
2022-11-15T06:40:53.066Z,10.52
2022-11-15T06:43:40.647Z,8.25
2022-11-15T06:46:25.838Z,12.95
2022-11-15T06:49:11.460Z,13.80
2022-11-15T06:51:57.177Z,10.27
2022-11-15T06:54:42.575Z,9.32
2022-11-15T06:57:29.340Z,12.07
2022-11-15T07:00:16.066Z,10.93
2022-11-15T07:03:01.983Z,11.48
2022-11-15T07:06:06.797Z,11.25
2022-11-15T07:08:53.763Z,9.30
2022-11-15T07:11:39.664Z,11.75
2022-11-15T07:14:26.627Z,10.85
2022-11-15T07:17:15.238Z,13.32
2022-11-15T07:20:00.927Z,7.20
2022-11-15T07:22:46.803Z,8.90
2022-11-15T07:25:33.134Z,7.93
2022-11-15T07:28:19.819Z,6.18
2022-11-15T07:31:07.985Z,3.42
2022-11-15T07:33:54.028Z,6.93
2022-11-15T07:36:39.736Z,4.70
2022-11-15T07:39:25.416Z,6.63
2022-11-15T07:42:30.122Z,5.07
2022-11-15T07:45:16.043Z,6.05
2022-11-15T07:48:01.953Z,7.30
2022-11-15T07:50:47.422Z,9.23
2022-11-15T07:53:33.707Z,8.90
2022-11-15T07:56:21.662Z,5.40
2022-11-15T07:59:07.364Z,4.55
2022-11-15T08:01:52.960Z,7.15
2022-11-15T08:04:38.590Z,3.83
2022-11-15T08:07:24.396Z,3.95
2022-11-15T08:10:09.906Z,5.60
2022-11-15T08:13:14.501Z,7.07
2022-11-15T08:16:06.154Z,5.57
2022-11-15T08:18:52.327Z,4.82
2022-11-15T08:21:38.339Z,8.57
2022-11-15T08:24:23.721Z,1.73
2022-11-15T08:27:15.950Z,6.10
2022-11-15T08:30:02.677Z,3.03
2022-11-15T08:32:48.947Z,8.80
2022-11-15T08:35:34.917Z,3.10
2022-11-15T08:38:20.339Z,7.53
2022-11-15T08:41:06.988Z,2.40
2022-11-15T08:43:52.839Z,4.97
2022-11-15T08:46:38.500Z,4.30
2022-11-15T08:49:23.959Z,3.45
2022-11-15T08:52:10.350Z,4.47
2022-11-15T08:54:55.656Z,4.25
2022-11-15T08:57:41.219Z,11.02
2022-11-15T09:00:26.513Z,2.60
2022-11-15T09:03:12.145Z,7.50
2022-11-15T09:05:59.235Z,2.22
2022-11-15T09:08:48.647Z,4.38
2022-11-15T09:11:34.455Z,1.75
2022-11-15T09:14:20.195Z,2.63
2022-11-15T09:17:09.486Z,9.48
2022-11-15T09:19:54.837Z,7.28
2022-11-15T09:22:40.527Z,2.22
2022-11-15T09:25:25.890Z,0.75
2022-11-15T09:28:11.485Z,6.72
2022-11-15T09:30:59.595Z,1.85
2022-11-15T09:33:48.321Z,1.98
2022-11-15T09:36:33.843Z,5.97
2022-11-15T09:39:19.743Z,3.70
2022-11-15T09:42:22.757Z,4.32
2022-11-15T09:45:24.656Z,1.90
2022-11-15T09:48:44.784Z,2.65
2022-11-15T09:51:37.915Z,3.38
2022-11-15T09:57:16.001Z,5.43
2022-11-15T10:00:38.727Z,4.63
2022-11-15T10:03:23.081Z,6.75
2022-11-15T10:05:52.848Z,2.72
2022-11-15T10:08:37.984Z,0.90
2022-11-15T10:14:05.928Z,6.57
2022-11-15T10:17:00.590Z,6.93
2022-11-15T10:19:43.405Z,6.00
2022-11-15T10:22:26.753Z,1.83
2022-11-15T10:25:19.686Z,8.73
2022-11-15T10:28:00.322Z,7.10
2022-11-15T10:30:48.724Z,5.85
2022-11-15T10:33:37.249Z,1.63
2022-11-15T10:36:14.373Z,2.75
2022-11-15T10:38:50.453Z,10.18
2022-11-15T10:41:17.558Z,2.75
2022-11-15T10:43:44.479Z,2.97
2022-11-15T10:46:45.591Z,2.95
2022-11-15T10:49:16.657Z,1.60
2022-11-15T10:51:48.819Z,2.72
2022-11-15T10:54:25.769Z,5.43
2022-11-15T10:56:56.775Z,4.75
2022-11-15T10:59:38.655Z,1.20
2022-11-15T11:02:29.095Z,3.22
2022-11-15T11:04:56.045Z,2.42
2022-11-15T11:07:32.196Z,1.33
2022-11-15T11:13:16.281Z,2.97
2022-11-15T11:15:48.547Z,2.33
2022-11-15T11:18:29.751Z,2.35
2022-11-15T11:21:01.637Z,2.75
2022-11-15T11:23:47.203Z,2.85
2022-11-15T11:26:22.704Z,2.53
2022-11-15T11:29:01.657Z,3.08
2022-11-15T11:31:48.581Z,9.60
2022-11-15T11:34:30.956Z,4.95
2022-11-15T11:37:31.686Z,2.42
2022-11-15T11:40:17.476Z,1.85
2022-11-15T11:43:00.497Z,3.88
2022-11-15T11:45:50.160Z,2.92
2022-11-15T11:48:41.075Z,5.47
2022-11-15T11:51:26.716Z,3.08
2022-11-15T11:54:02.103Z,7.03
2022-11-15T11:56:41.053Z,1.73
2022-11-15T11:59:17.430Z,4.47
2022-11-15T12:01:46.025Z,3.17
2022-11-15T12:04:22.233Z,1.42
2022-11-15T12:07:09.178Z,3.28
2022-11-15T12:10:00.689Z,6.10
2022-11-15T12:12:46.820Z,2.75
2022-11-15T12:15:22.021Z,0.90
2022-11-15T12:17:49.742Z,3.42
2022-11-15T12:20:20.347Z,2.92
2022-11-15T12:22:58.700Z,6.88
2022-11-15T12:25:55.359Z,4.95
2022-11-15T12:28:45.044Z,6.40
2022-11-15T12:31:40.757Z,3.58
2022-11-15T12:34:23.211Z,2.63
2022-11-15T12:36:52.072Z,0.90
2022-11-15T12:39:20.158Z,1.45
2022-11-15T12:41:56.268Z,1.90
2022-11-15T12:44:32.770Z,2.28
2022-11-15T12:47:02.425Z,2.72
2022-11-15T12:49:29.276Z,6.40
2022-11-15T12:51:59.305Z,2.15
2022-11-15T12:54:27.523Z,5.07
2022-11-15T12:57:20.558Z,2.88
2022-11-15T13:00:02.847Z,2.80
2022-11-15T13:02:40.118Z,2.40
2022-11-15T13:05:18.945Z,2.78
2022-11-15T13:07:45.919Z,1.88
2022-11-15T13:10:34.715Z,1.30
2022-11-15T13:13:10.256Z,3.95
2022-11-15T13:15:57.600Z,2.75
2022-11-15T13:18:40.755Z,8.02
2022-11-15T13:21:43.232Z,2.25
2022-11-15T13:24:14.576Z,4.40
2022-11-15T13:26:41.638Z,1.13
2022-11-15T13:29:18.415Z,3.70
2022-11-15T13:31:46.346Z,1.92
2022-11-15T13:37:21.231Z,4.43
2022-11-15T13:39:49.453Z,7.47
2022-11-15T13:42:18.616Z,0.65
2022-11-15T13:45:06.722Z,2.58
2022-11-15T13:47:33.870Z,1.75
2022-11-15T13:50:09.638Z,6.65
2022-11-15T13:52:43.959Z,1.63
2022-11-15T13:55:15.664Z,6.43
2022-11-15T13:57:49.022Z,0.80
2022-11-15T14:00:39.807Z,1.92
2022-11-15T14:03:19.610Z,0.70
2022-11-15T14:06:08.613Z,0.88
2022-11-15T14:08:36.689Z,2.47
2022-11-15T14:11:20.820Z,4.00
2022-11-15T14:14:14.029Z,1.80
2022-11-15T14:16:46.630Z,9.20
2022-11-15T14:19:22.688Z,7.28
2022-11-15T14:22:12.668Z,3.97
2022-11-15T14:24:41.008Z,1.02
2022-11-15T14:27:24.913Z,2.47
2022-11-15T14:29:52.456Z,3.70
2022-11-15T14:34:56.158Z,2.70
2022-11-15T14:37:34.534Z,6.57
2022-11-15T14:40:07.050Z,3.95
2022-11-15T14:42:34.162Z,6.07
2022-11-15T14:45:01.199Z,3.83
2022-11-15T14:47:28.261Z,2.88
2022-11-15T14:49:55.148Z,5.72
2022-11-15T14:52:32.980Z,1.23
2022-11-15T14:55:02.403Z,2.15
2022-11-15T14:57:30.227Z,1.55
2022-11-15T14:59:57.761Z,4.38
2022-11-15T15:02:39.928Z,2.17
2022-11-15T15:05:31.526Z,2.65
2022-11-15T15:07:58.761Z,2.13
2022-11-15T15:10:44.356Z,3.00
2022-11-15T15:13:25.213Z,2.63
2022-11-15T15:15:53.114Z,1.63
2022-11-15T15:18:20.866Z,2.55
2022-11-15T15:21:00.890Z,2.45
2022-11-15T15:23:30.307Z,2.55
2022-11-15T15:25:57.499Z,3.13
2022-11-15T15:28:26.622Z,7.75
2022-11-15T15:30:55.623Z,3.13
2022-11-15T15:33:22.416Z,1.80
2022-11-15T15:35:49.743Z,0.82
2022-11-15T15:38:16.805Z,2.70
2022-11-15T15:40:43.851Z,2.60
2022-11-15T15:43:10.763Z,5.18
2022-11-15T15:45:40.690Z,2.25
2022-11-15T15:48:12.116Z,2.20
2022-11-15T15:50:39.435Z,5.93
2022-11-15T15:53:06.482Z,1.88
2022-11-15T15:55:33.423Z,1.88
2022-11-15T15:58:00.189Z,7.07
2022-11-15T16:00:27.440Z,2.85
2022-11-15T16:02:54.909Z,2.85
2022-11-15T16:05:23.429Z,1.67
2022-11-15T16:07:50.400Z,3.90
2022-11-15T16:10:38.055Z,3.25
2022-11-15T16:13:07.901Z,3.28
2022-11-15T16:15:36.865Z,6.80
2022-11-15T16:18:05.049Z,3.13
2022-11-15T16:20:46.387Z,2.45
2022-11-15T16:23:15.440Z,2.45
2022-11-15T16:25:51.364Z,2.05
2022-11-15T16:28:21.227Z,16.75
2022-11-15T16:30:52.413Z,3.38
2022-11-15T16:33:23.577Z,2.38
2022-11-15T16:35:50.370Z,4.97
2022-11-15T16:38:18.239Z,12.30
2022-11-15T16:40:45.040Z,2.20
2022-11-15T16:43:12.083Z,5.25
2022-11-15T16:45:38.985Z,1.58
2022-11-15T16:48:06.152Z,2.35
2022-11-15T16:50:41.488Z,1.17
2022-11-15T16:53:08.323Z,3.30
2022-11-15T16:55:35.075Z,2.90
2022-11-15T16:58:02.329Z,5.15
2022-11-15T17:00:29.154Z,2.15
2022-11-15T17:02:56.265Z,4.63
2022-11-15T17:05:24.258Z,9.77
2022-11-15T17:07:54.226Z,4.22
2022-11-15T17:10:26.082Z,2.08
2022-11-15T17:12:55.171Z,6.05
2022-11-15T17:15:22.772Z,1.77
2022-11-15T17:17:54.129Z,3.42
2022-11-15T17:20:23.691Z,5.45
2022-11-15T17:22:51.189Z,1.45
2022-11-15T17:25:18.255Z,5.88
2022-11-15T17:27:45.085Z,2.65
2022-11-15T17:30:15.330Z,3.33
2022-11-15T17:32:43.144Z,1.25
2022-11-15T17:35:15.582Z,8.93
2022-11-15T17:37:44.202Z,1.42
2022-11-15T17:40:12.004Z,4.35
2022-11-15T17:42:41.568Z,1.85
2022-11-15T17:45:10.506Z,2.10
2022-11-15T17:47:38.311Z,2.08
2022-11-15T17:52:32.331Z,6.07
2022-11-15T17:54:59.385Z,7.05
2022-11-15T17:57:26.371Z,1.40
2022-11-15T17:59:53.409Z,1.42
2022-11-15T18:02:20.664Z,2.10
2022-11-15T18:04:47.474Z,6.38
2022-11-15T18:07:14.513Z,8.48
2022-11-15T18:09:43.969Z,7.07
2022-11-15T18:12:11.732Z,6.55
2022-11-15T18:14:39.061Z,12.75
2022-11-15T18:17:06.141Z,3.13
2022-11-15T18:19:33.956Z,1.02
2022-11-15T18:22:01.703Z,4.93
2022-11-15T18:24:34.817Z,3.20
2022-11-15T18:27:04.324Z,9.43
2022-11-15T18:29:32.491Z,2.10
2022-11-15T18:31:59.516Z,4.32
2022-11-15T18:34:33.637Z,2.47
2022-11-15T18:37:02.597Z,3.60
2022-11-15T18:39:29.733Z,2.63
2022-11-15T18:41:56.508Z,4.22
2022-11-15T18:44:23.368Z,5.63
2022-11-15T18:46:51.069Z,3.85
2022-11-15T18:49:19.635Z,2.95
2022-11-15T18:51:48.109Z,3.40
2022-11-15T18:54:16.806Z,3.63
2022-11-15T18:56:45.549Z,5.50
2022-11-15T18:59:12.956Z,3.47
2022-11-15T19:01:42.654Z,1.90
2022-11-15T19:04:12.411Z,4.53
2022-11-15T19:06:41.723Z,3.75
2022-11-15T19:09:10.192Z,2.75
2022-11-15T19:11:39.515Z,2.95
2022-11-15T19:14:09.137Z,4.40
2022-11-15T19:16:52.342Z,3.67
2022-11-15T19:19:28.325Z,5.72
2022-11-15T19:21:57.126Z,4.43
2022-11-15T19:24:26.467Z,3.40
2022-11-15T19:26:54.789Z,3.28
2022-11-15T19:29:21.741Z,4.50
2022-11-15T19:31:48.903Z,4.15
2022-11-15T19:34:16.816Z,3.10
2022-11-15T19:36:44.395Z,4.72
2022-11-15T19:41:42.736Z,2.47
2022-11-15T19:44:11.393Z,2.88
2022-11-15T19:46:39.246Z,3.28
2022-11-15T19:49:10.838Z,4.65
2022-11-15T19:51:39.441Z,3.17
2022-11-15T19:54:08.749Z,2.10
2022-11-15T19:56:36.574Z,5.40
2022-11-15T20:01:36.477Z,2.88
2022-11-15T20:04:05.590Z,3.72
2022-11-15T20:06:34.818Z,3.80
2022-11-15T20:09:02.147Z,7.95
2022-11-15T20:11:29.489Z,3.97
2022-11-15T20:13:58.788Z,3.97
2022-11-15T20:16:26.394Z,2.63
2022-11-15T20:18:53.966Z,2.80
2022-11-15T20:21:21.815Z,4.40
2022-11-15T20:23:50.874Z,4.72
2022-11-15T20:26:19.555Z,6.95
2022-11-15T20:28:47.852Z,3.63
2022-11-15T20:31:15.253Z,4.85
2022-11-15T20:36:13.937Z,4.05
2022-11-15T20:38:41.246Z,4.50
2022-11-15T20:41:08.105Z,5.05
2022-11-15T20:43:35.028Z,5.07
2022-11-15T20:46:02.050Z,3.15
2022-11-15T20:48:28.963Z,5.50
2022-11-15T20:51:15.996Z,1.80
2022-11-15T20:53:44.376Z,3.03
2022-11-15T20:56:14.007Z,4.30
2022-11-15T20:58:41.811Z,6.57
2022-11-15T21:01:11.787Z,1.80
2022-11-15T21:03:39.776Z,7.82
2022-11-15T21:06:07.086Z,1.48
2022-11-15T21:08:53.859Z,2.40
2022-11-15T21:11:40.048Z,2.90
2022-11-15T21:14:09.520Z,1.83
2022-11-15T21:16:37.913Z,3.28
2022-11-15T21:19:05.961Z,1.10
2022-11-15T21:21:33.011Z,1.63
2022-11-15T21:24:02.173Z,4.03
2022-11-15T21:26:29.208Z,2.85
2022-11-15T21:28:55.905Z,6.43
2022-11-15T21:31:23.013Z,7.17
2022-11-15T21:33:49.720Z,2.40
2022-11-15T21:36:16.557Z,2.33
2022-11-15T21:38:43.398Z,4.30
2022-11-15T21:41:10.251Z,3.67
2022-11-15T21:43:36.931Z,4.72
2022-11-15T21:46:06.765Z,6.70
2022-11-15T21:48:35.338Z,3.88
2022-11-15T21:51:08.462Z,4.72
2022-11-15T21:53:35.376Z,2.63
2022-11-15T21:56:02.763Z,3.10
2022-11-15T22:01:15.487Z,2.60
2022-11-15T22:03:42.800Z,3.63
2022-11-15T22:06:16.023Z,2.05
2022-11-15T22:08:45.169Z,2.55
2022-11-15T22:11:12.335Z,2.42
2022-11-15T22:13:39.030Z,3.05
2022-11-15T22:16:06.357Z,9.90
2022-11-15T22:18:33.553Z,2.85
2022-11-15T22:21:03.347Z,2.25
2022-11-15T22:23:32.208Z,0.73
2022-11-15T22:25:59.639Z,3.55
2022-11-15T22:28:26.761Z,1.85
2022-11-15T22:30:54.573Z,2.35
2022-11-15T22:33:23.920Z,3.45
2022-11-15T22:35:51.347Z,1.55
2022-11-15T22:38:18.522Z,1.52
2022-11-15T22:40:46.555Z,3.53
2022-11-15T22:43:15.064Z,2.95
2022-11-15T22:46:09.362Z,7.65
2022-11-15T22:48:38.789Z,2.38
2022-11-15T22:51:08.329Z,3.38
2022-11-15T22:53:35.111Z,2.63
2022-11-15T22:56:03.658Z,2.97
2022-11-15T22:58:32.541Z,4.15
2022-11-15T23:01:01.911Z,2.47
2022-11-15T23:03:29.977Z,2.22
2022-11-15T23:06:05.401Z,4.10
2022-11-15T23:08:32.997Z,3.33
2022-11-15T23:13:46.405Z,1.92
2022-11-15T23:16:31.622Z,1.90
2022-11-15T23:18:59.725Z,1.98
2022-11-15T23:21:48.075Z,4.35
2022-11-15T23:24:15.423Z,11.48
2022-11-15T23:26:44.279Z,1.67
2022-11-15T23:29:13.645Z,3.10
2022-11-15T23:32:02.118Z,2.17
2022-11-15T23:34:31.521Z,4.45
2022-11-15T23:36:59.232Z,3.80
2022-11-15T23:39:26.634Z,4.15
2022-11-15T23:41:53.635Z,1.50
2022-11-15T23:44:20.522Z,1.05
2022-11-15T23:46:47.375Z,2.80
2022-11-15T23:49:14.310Z,8.45
2022-11-15T23:51:41.064Z,12.43
2022-11-15T23:54:08.216Z,1.98
2022-11-15T23:56:35.194Z,4.38
2022-11-15T23:59:02.033Z,4.20
